createdAt,value
2017-10-08T00:00:23.115Z,83.41
2017-10-08T00:01:28.908Z,83.23
2017-10-08T00:02:35.420Z,83.40
2017-10-08T00:03:41.185Z,83.58
2017-10-08T00:04:46.936Z,83.39
2017-10-08T00:05:52.693Z,83.43
2017-10-08T00:06:58.460Z,83.52
2017-10-08T00:08:04.972Z,83.38
2017-10-08T00:09:10.707Z,83.13
2017-10-08T00:10:16.463Z,83.08
2017-10-08T00:11:22.201Z,83.04
2017-10-08T00:12:27.968Z,82.97
2017-10-08T00:13:34.495Z,83.05
2017-10-08T00:14:40.235Z,82.98
2017-10-08T00:15:45.983Z,83.46
2017-10-08T00:16:51.732Z,83.55
2017-10-08T00:17:57.504Z,83.09
2017-10-08T00:19:04.080Z,83.38
2017-10-08T00:20:10.587Z,83.36
2017-10-08T00:21:16.349Z,83.45
2017-10-08T00:22:22.877Z,83.48
2017-10-08T00:23:28.650Z,83.39
2017-10-08T00:24:34.424Z,83.45
2017-10-08T00:25:40.924Z,83.45
2017-10-08T00:26:46.668Z,83.23
2017-10-08T00:27:52.484Z,83.08
2017-10-08T00:28:58.256Z,83.30
2017-10-08T00:30:03.996Z,83.45
2017-10-08T00:31:09.749Z,83.69
2017-10-08T00:32:16.006Z,83.68
2017-10-08T00:33:21.736Z,83.22
2017-10-08T00:34:27.512Z,83.31
2017-10-08T00:35:33.259Z,83.43
2017-10-08T00:36:39.776Z,83.48
2017-10-08T00:37:45.527Z,83.42
2017-10-08T00:38:51.274Z,83.58
2017-10-08T00:39:57.052Z,83.55
2017-10-08T00:41:02.800Z,83.55
2017-10-08T00:42:08.543Z,83.50
2017-10-08T00:43:14.307Z,83.50
2017-10-08T00:44:19.868Z,83.51
2017-10-08T00:45:25.454Z,83.63
2017-10-08T00:46:31.203Z,83.67
2017-10-08T00:47:36.972Z,83.77
2017-10-08T00:48:43.747Z,83.82
2017-10-08T00:49:49.491Z,83.63
2017-10-08T00:50:55.268Z,83.93
2017-10-08T00:52:01.783Z,83.93
2017-10-08T00:53:07.532Z,84.18
2017-10-08T00:54:13.272Z,84.14
2017-10-08T00:55:18.324Z,84.07
2017-10-08T00:56:24.224Z,83.96
2017-10-08T00:57:29.284Z,83.93
2017-10-08T00:58:34.348Z,83.97
2017-10-08T00:59:39.404Z,83.76
2017-10-08T01:00:44.447Z,83.76
2017-10-08T01:01:50.392Z,83.69
2017-10-08T01:02:56.138Z,83.64
2017-10-08T01:04:01.885Z,83.71
2017-10-08T01:05:07.633Z,83.60
2017-10-08T01:06:13.402Z,83.55
2017-10-08T01:07:19.940Z,83.53
2017-10-08T01:08:26.462Z,83.26
2017-10-08T01:09:32.216Z,83.30
2017-10-08T01:10:37.972Z,83.47
2017-10-08T01:11:43.736Z,83.27
2017-10-08T01:12:50.272Z,83.06
2017-10-08T01:13:56.024Z,83.05
2017-10-08T01:15:02.550Z,83.20
2017-10-08T01:16:08.302Z,83.40
2017-10-08T01:17:14.048Z,83.30
2017-10-08T01:18:19.824Z,83.21
2017-10-08T01:19:25.661Z,83.11
2017-10-08T01:20:31.819Z,83.24
2017-10-08T01:21:37.648Z,83.25
2017-10-08T01:22:43.551Z,83.20
2017-10-08T01:23:49.050Z,83.37
2017-10-08T01:24:54.913Z,82.85
2017-10-08T01:26:00.449Z,82.99
2017-10-08T01:27:05.349Z,83.12
2017-10-08T01:28:10.408Z,83.30
2017-10-08T01:29:15.504Z,82.93
2017-10-08T01:30:20.661Z,82.80
2017-10-08T01:31:26.060Z,82.95
2017-10-08T01:32:31.476Z,83.07
2017-10-08T01:33:37.342Z,82.89
2017-10-08T01:34:43.868Z,82.89
2017-10-08T01:35:48.955Z,82.98
2017-10-08T01:36:53.997Z,82.87
2017-10-08T01:37:59.125Z,82.98
2017-10-08T01:39:04.117Z,83.02
2017-10-08T01:40:09.551Z,82.67
2017-10-08T01:41:14.761Z,82.67
2017-10-08T01:42:20.522Z,82.79
2017-10-08T01:43:26.143Z,82.93
2017-10-08T01:44:32.703Z,82.92
2017-10-08T01:45:39.229Z,82.94
2017-10-08T01:46:44.991Z,82.79
2017-10-08T01:47:51.152Z,82.64
2017-10-08T01:48:56.888Z,82.47
2017-10-08T01:50:03.421Z,82.21
2017-10-08T01:51:09.095Z,82.41
2017-10-08T01:52:15.595Z,82.63
2017-10-08T01:53:21.344Z,82.70
2017-10-08T01:54:27.099Z,82.67
2017-10-08T01:55:32.488Z,82.79
2017-10-08T01:56:38.263Z,82.79
2017-10-08T01:57:44.054Z,82.89
2017-10-08T01:58:50.556Z,82.88
2017-10-08T01:59:56.322Z,83.00
2017-10-08T02:01:03.585Z,83.04
2017-10-08T02:02:09.388Z,82.95
2017-10-08T02:03:15.219Z,82.82
2017-10-08T02:04:21.397Z,82.76
2017-10-08T02:05:27.139Z,82.92
2017-10-08T02:06:32.900Z,82.88
2017-10-08T02:07:38.696Z,82.74
2017-10-08T02:08:45.192Z,82.61
2017-10-08T02:09:50.952Z,82.38
2017-10-08T02:10:56.004Z,82.20
2017-10-08T02:12:02.593Z,82.32
2017-10-08T02:13:08.356Z,82.47
2017-10-08T02:14:13.921Z,82.62
2017-10-08T02:15:19.686Z,82.51
2017-10-08T02:16:26.261Z,82.47
2017-10-08T02:17:33.024Z,82.62
2017-10-08T02:18:39.557Z,82.35
2017-10-08T02:19:45.296Z,82.52
2017-10-08T02:20:51.040Z,82.23
2017-10-08T02:21:58.156Z,82.39
2017-10-08T02:23:03.901Z,82.24
2017-10-08T02:24:09.701Z,82.35
2017-10-08T02:25:15.437Z,82.45
2017-10-08T02:26:21.215Z,82.41
2017-10-08T02:27:27.015Z,82.55
2017-10-08T02:28:32.753Z,82.34
2017-10-08T02:29:38.572Z,82.33
2017-10-08T02:30:44.313Z,82.36
2017-10-08T02:31:49.864Z,82.56
2017-10-08T02:32:55.612Z,82.74
2017-10-08T02:34:01.356Z,82.69
2017-10-08T02:35:07.146Z,82.84
2017-10-08T02:36:12.909Z,82.61
2017-10-08T02:37:18.664Z,82.60
2017-10-08T02:38:24.402Z,82.52
2017-10-08T02:39:30.147Z,82.51
2017-10-08T02:40:35.908Z,82.37
2017-10-08T02:41:41.648Z,82.37
2017-10-08T02:42:48.164Z,82.42
2017-10-08T02:43:53.912Z,82.47
2017-10-08T02:44:59.663Z,82.46
2017-10-08T02:46:05.082Z,82.35
2017-10-08T02:47:10.840Z,82.33
2017-10-08T02:48:16.597Z,82.22
2017-10-08T02:49:22.178Z,82.26
2017-10-08T02:50:28.734Z,82.35
2017-10-08T02:51:35.267Z,82.61
2017-10-08T02:52:41.007Z,82.79
2017-10-08T02:53:46.744Z,82.94
2017-10-08T02:54:52.501Z,82.68
2017-10-08T02:55:59.002Z,82.56
2017-10-08T02:57:04.773Z,82.71
2017-10-08T02:58:10.524Z,82.94
2017-10-08T02:59:16.272Z,82.98
2017-10-08T03:00:22.012Z,83.11
2017-10-08T03:01:28.530Z,82.87
2017-10-08T03:02:34.336Z,82.47
2017-10-08T03:03:40.911Z,82.43
2017-10-08T03:04:46.651Z,82.48
2017-10-08T03:05:52.416Z,82.82
2017-10-08T03:06:58.236Z,82.70
2017-10-08T03:08:04.795Z,82.43
2017-10-08T03:09:10.776Z,82.69
2017-10-08T03:10:16.536Z,82.68
2017-10-08T03:11:22.279Z,82.77
2017-10-08T03:12:28.015Z,82.86
2017-10-08T03:13:33.794Z,82.72
2017-10-08T03:14:40.300Z,82.80
2017-10-08T03:15:46.032Z,82.83
2017-10-08T03:16:51.780Z,82.78
2017-10-08T03:17:57.319Z,82.93
2017-10-08T03:19:03.112Z,82.86
2017-10-08T03:20:09.696Z,83.01
2017-10-08T03:21:15.438Z,82.91
2017-10-08T03:22:21.004Z,82.87
2017-10-08T03:23:26.757Z,82.59
2017-10-08T03:24:32.520Z,82.69
2017-10-08T03:25:39.036Z,82.62
2017-10-08T03:26:44.777Z,82.86
2017-10-08T03:27:50.520Z,83.05
2017-10-08T03:28:56.265Z,82.89
2017-10-08T03:30:02.040Z,82.85
2017-10-08T03:31:07.798Z,82.79
2017-10-08T03:32:14.296Z,82.94
2017-10-08T03:33:20.043Z,82.96
2017-10-08T03:34:25.784Z,82.91
2017-10-08T03:35:31.631Z,82.82
2017-10-08T03:36:37.346Z,82.84
2017-10-08T03:37:43.092Z,82.95
2017-10-08T03:38:48.832Z,83.37
2017-10-08T03:39:54.460Z,83.52
2017-10-08T03:41:00.399Z,83.59
2017-10-08T03:42:06.725Z,83.53
2017-10-08T03:43:12.485Z,83.53
2017-10-08T03:44:18.244Z,83.69
2017-10-08T03:45:24.033Z,83.95
2017-10-08T03:46:29.793Z,84.22
2017-10-08T03:47:35.541Z,84.45
2017-10-08T03:48:41.284Z,84.53
2017-10-08T03:49:47.819Z,84.66
2017-10-08T03:50:53.556Z,84.72
2017-10-08T03:51:59.320Z,84.66
2017-10-08T03:53:05.067Z,84.75
2017-10-08T03:54:10.810Z,84.75
2017-10-08T03:55:17.316Z,84.91
2017-10-08T03:56:23.068Z,85.20
2017-10-08T03:57:28.859Z,85.41
2017-10-08T03:58:35.385Z,85.41
2017-10-08T03:59:41.129Z,85.50
2017-10-08T04:00:46.884Z,85.55
2017-10-08T04:01:52.639Z,85.81
2017-10-08T04:02:59.172Z,86.07
2017-10-08T04:04:04.921Z,86.12
2017-10-08T04:05:10.685Z,85.99
2017-10-08T04:06:17.216Z,85.87
2017-10-08T04:07:22.965Z,85.80
2017-10-08T04:08:28.544Z,86.10
2017-10-08T04:09:34.296Z,86.42
2017-10-08T04:10:40.057Z,86.79
2017-10-08T04:11:45.621Z,86.68
2017-10-08T04:12:51.181Z,86.91
2017-10-08T04:13:57.543Z,86.93
2017-10-08T04:15:04.047Z,87.00
2017-10-08T04:16:09.616Z,86.88
2017-10-08T04:17:15.355Z,86.98
2017-10-08T04:18:20.911Z,86.96
2017-10-08T04:19:27.272Z,86.81
2017-10-08T04:20:33.603Z,86.50
2017-10-08T04:21:39.347Z,86.70
2017-10-08T04:22:44.695Z,86.76
2017-10-08T04:23:51.204Z,86.80
2017-10-08T04:24:56.985Z,86.81
2017-10-08T04:26:02.726Z,86.80
2017-10-08T04:27:08.459Z,86.83
2017-10-08T04:28:15.160Z,86.66
2017-10-08T04:29:20.910Z,86.43
2017-10-08T04:30:26.696Z,86.62
2017-10-08T04:31:32.446Z,86.63
2017-10-08T04:32:38.963Z,86.47
2017-10-08T04:33:44.705Z,86.33
2017-10-08T04:34:50.459Z,86.32
2017-10-08T04:35:56.048Z,86.58
2017-10-08T04:37:02.572Z,86.53
2017-10-08T04:38:08.321Z,86.46
2017-10-08T04:39:14.116Z,86.36
2017-10-08T04:40:19.714Z,86.17
2017-10-08T04:41:25.481Z,86.15
2017-10-08T04:42:31.357Z,86.04
2017-10-08T04:43:37.099Z,85.80
2017-10-08T04:44:42.880Z,85.63
2017-10-08T04:45:48.656Z,85.81
2017-10-08T04:46:54.420Z,85.77
2017-10-08T04:48:00.180Z,85.55
2017-10-08T04:49:05.927Z,85.49
2017-10-08T04:50:11.466Z,85.37
2017-10-08T04:51:17.210Z,85.40
2017-10-08T04:52:22.973Z,85.60
2017-10-08T04:53:28.714Z,85.59
2017-10-08T04:54:35.229Z,85.49
2017-10-08T04:55:40.975Z,85.32
2017-10-08T04:56:46.712Z,85.07
2017-10-08T04:57:52.608Z,84.87
2017-10-08T04:58:59.184Z,84.75
2017-10-08T05:00:05.883Z,84.47
2017-10-08T05:01:11.689Z,84.57
2017-10-08T05:02:18.250Z,84.63
2017-10-08T05:03:24.784Z,84.80
2017-10-08T05:04:31.289Z,84.79
2017-10-08T05:05:37.028Z,84.73
2017-10-08T05:06:42.772Z,84.68
2017-10-08T05:07:48.518Z,84.76
2017-10-08T05:08:54.080Z,84.58
2017-10-08T05:09:59.823Z,84.57
2017-10-08T05:11:05.560Z,84.71
2017-10-08T05:12:10.960Z,84.87
2017-10-08T05:13:16.712Z,84.83
2017-10-08T05:14:22.148Z,84.77
2017-10-08T05:15:27.551Z,84.78
2017-10-08T05:16:33.292Z,84.98
2017-10-08T05:17:39.041Z,85.01
2017-10-08T05:18:44.783Z,84.99
2017-10-08T05:19:50.619Z,84.80
2017-10-08T05:20:57.128Z,84.62
2017-10-08T05:22:02.868Z,84.67
2017-10-08T05:23:08.631Z,84.54
2017-10-08T05:24:15.128Z,84.43
2017-10-08T05:25:20.948Z,84.42
2017-10-08T05:26:27.448Z,84.41
2017-10-08T05:27:33.191Z,84.24
2017-10-08T05:28:39.721Z,84.33
2017-10-08T05:29:45.469Z,84.31
2017-10-08T05:30:51.237Z,84.32
2017-10-08T05:31:56.998Z,84.41
2017-10-08T05:33:02.768Z,84.42
2017-10-08T05:34:08.549Z,84.41
2017-10-08T05:35:14.303Z,84.25
2017-10-08T05:36:20.063Z,84.10
2017-10-08T05:37:26.064Z,84.30
2017-10-08T05:38:32.568Z,84.30
2017-10-08T05:39:38.341Z,84.16
2017-10-08T05:40:44.849Z,84.11
2017-10-08T05:41:50.612Z,84.08
2017-10-08T05:42:56.347Z,84.03
2017-10-08T05:44:02.156Z,83.90
2017-10-08T05:45:07.910Z,83.84
2017-10-08T05:46:13.652Z,83.85
2017-10-08T05:47:19.223Z,83.84
2017-10-08T05:48:25.746Z,83.89
2017-10-08T05:49:31.567Z,83.87
2017-10-08T05:50:38.079Z,83.81
2017-10-08T05:51:43.820Z,83.75
2017-10-08T05:52:49.612Z,83.45
2017-10-08T05:53:55.384Z,83.40
2017-10-08T05:55:00.916Z,83.54
2017-10-08T05:56:06.658Z,83.46
2017-10-08T05:57:12.396Z,83.19
2017-10-08T05:58:18.164Z,83.00
2017-10-08T05:59:23.954Z,83.09
2017-10-08T06:00:30.451Z,82.98
2017-10-08T06:01:36.191Z,82.90
2017-10-08T06:02:41.940Z,82.81
2017-10-08T06:03:47.838Z,82.69
2017-10-08T06:04:53.400Z,82.82
2017-10-08T06:05:59.148Z,82.69
2017-10-08T06:07:04.899Z,82.94
2017-10-08T06:08:10.639Z,82.71
2017-10-08T06:09:16.400Z,82.68
2017-10-08T06:10:21.795Z,82.68
2017-10-08T06:11:27.552Z,82.55
2017-10-08T06:12:33.292Z,82.50
2017-10-08T06:13:39.044Z,82.57
2017-10-08T06:14:45.141Z,82.67
2017-10-08T06:15:51.649Z,82.48
2017-10-08T06:16:57.496Z,82.52
2017-10-08T06:18:03.490Z,82.45
2017-10-08T06:19:10.018Z,82.46
2017-10-08T06:20:15.779Z,82.23
2017-10-08T06:21:22.316Z,82.00
2017-10-08T06:22:28.064Z,82.03
2017-10-08T06:23:33.800Z,82.16
2017-10-08T06:24:39.804Z,82.29
2017-10-08T06:25:45.576Z,82.20
2017-10-08T06:26:51.319Z,82.16
2017-10-08T06:27:56.873Z,82.20
2017-10-08T06:29:03.380Z,82.24
2017-10-08T06:30:09.147Z,82.04
2017-10-08T06:31:14.922Z,81.53
2017-10-08T06:32:20.665Z,81.66
2017-10-08T06:33:26.481Z,81.83
2017-10-08T06:34:32.219Z,81.80
2017-10-08T06:35:37.987Z,81.84
2017-10-08T06:36:43.747Z,81.93
2017-10-08T06:37:50.268Z,81.99
2017-10-08T06:38:56.003Z,81.98
2017-10-08T06:40:01.759Z,82.07
2017-10-08T06:41:07.492Z,81.98
2017-10-08T06:42:13.267Z,81.79
2017-10-08T06:43:19.764Z,81.76
2017-10-08T06:44:25.503Z,81.58
2017-10-08T06:45:31.240Z,81.37
2017-10-08T06:46:36.975Z,81.49
2017-10-08T06:47:42.746Z,81.53
2017-10-08T06:48:48.500Z,81.75
2017-10-08T06:49:54.238Z,81.62
2017-10-08T06:50:59.982Z,81.61
2017-10-08T06:52:05.732Z,81.57
2017-10-08T06:53:11.484Z,81.50
2017-10-08T06:54:17.234Z,81.46
2017-10-08T06:55:23.757Z,81.45
2017-10-08T06:56:29.499Z,81.34
2017-10-08T06:57:35.315Z,81.33
2017-10-08T06:58:41.091Z,81.31
2017-10-08T06:59:46.837Z,81.17
2017-10-08T07:00:52.590Z,81.15
2017-10-08T07:01:58.357Z,81.14
2017-10-08T07:03:04.137Z,81.11
2017-10-08T07:04:09.698Z,81.07
2017-10-08T07:05:15.461Z,81.03
2017-10-08T07:06:21.199Z,81.01
2017-10-08T07:07:27.704Z,80.80
2017-10-08T07:08:33.439Z,80.66
2017-10-08T07:09:39.224Z,80.68
2017-10-08T07:10:44.969Z,80.90
2017-10-08T07:11:50.708Z,80.82
2017-10-08T07:12:57.953Z,80.60
2017-10-08T07:14:03.755Z,80.35
2017-10-08T07:15:10.326Z,80.24
2017-10-08T07:16:16.888Z,80.12
2017-10-08T07:17:23.381Z,80.17
2017-10-08T07:18:29.132Z,80.07
2017-10-08T07:19:34.869Z,80.11
2017-10-08T07:20:40.462Z,79.93
2017-10-08T07:21:45.857Z,79.71
2017-10-08T07:22:51.596Z,79.75
2017-10-08T07:23:57.336Z,79.67
2017-10-08T07:25:03.092Z,79.48
2017-10-08T07:26:08.869Z,79.21
2017-10-08T07:27:14.399Z,79.00
2017-10-08T07:28:20.147Z,78.73
2017-10-08T07:29:25.887Z,78.31
2017-10-08T07:30:31.653Z,77.57
2017-10-08T07:31:37.216Z,77.01
2017-10-08T07:32:42.957Z,76.44
2017-10-08T07:33:48.705Z,75.77
2017-10-08T07:34:54.454Z,75.29
2017-10-08T07:36:00.191Z,74.34
2017-10-08T07:37:05.968Z,73.77
2017-10-08T07:38:11.723Z,73.29
2017-10-08T07:39:17.457Z,73.27
2017-10-08T07:40:23.200Z,73.46
2017-10-08T07:41:28.945Z,72.99
2017-10-08T07:42:34.759Z,72.57
2017-10-08T07:43:40.553Z,72.64
2017-10-08T07:44:46.363Z,72.48
2017-10-08T07:45:52.874Z,72.42
2017-10-08T07:46:59.055Z,72.81
2017-10-08T07:48:05.589Z,73.03
2017-10-08T07:49:11.131Z,72.83
2017-10-08T07:50:16.874Z,73.15
2017-10-08T07:51:22.616Z,73.38
2017-10-08T07:52:28.360Z,73.35
2017-10-08T07:53:33.780Z,73.52
2017-10-08T07:54:39.960Z,73.59
2017-10-08T07:55:46.018Z,73.50
2017-10-08T07:56:52.534Z,73.30
2017-10-08T07:57:58.268Z,73.30
2017-10-08T07:59:04.050Z,73.99
2017-10-08T08:00:10.556Z,74.06
2017-10-08T08:01:16.302Z,74.08
2017-10-08T08:02:22.080Z,73.81
2017-10-08T08:03:27.916Z,73.66
2017-10-08T08:04:33.696Z,73.64
2017-10-08T08:05:39.455Z,72.96
2017-10-08T08:06:45.270Z,72.57
2017-10-08T08:07:51.794Z,72.62
2017-10-08T08:08:57.540Z,73.16
2017-10-08T08:10:03.101Z,73.22
2017-10-08T08:11:09.609Z,73.05
2017-10-08T08:12:15.344Z,73.16
2017-10-08T08:13:26.690Z,73.12
2017-10-08T08:14:32.434Z,72.92
2017-10-08T08:15:38.228Z,72.60
2017-10-08T08:16:44.320Z,72.49
2017-10-08T08:17:50.816Z,72.04
2017-10-08T08:18:56.569Z,72.18
2017-10-08T08:20:02.308Z,71.82
2017-10-08T08:21:08.077Z,71.38
2017-10-08T08:22:17.714Z,71.67
2017-10-08T08:23:25.095Z,71.66
2017-10-08T08:24:31.800Z,72.00
2017-10-08T08:25:37.692Z,71.89
2017-10-08T08:26:44.380Z,71.68
2017-10-08T08:27:50.325Z,71.50
2017-10-08T08:28:57.761Z,71.78
2017-10-08T08:30:04.308Z,71.65
2017-10-08T08:31:10.056Z,71.53
2017-10-08T08:32:15.826Z,71.41
2017-10-08T08:33:23.236Z,71.45
2017-10-08T08:34:29.056Z,71.64
2017-10-08T08:35:36.491Z,71.83
2017-10-08T08:36:42.347Z,72.38
2017-10-08T08:37:49.240Z,72.28
2017-10-08T08:38:55.153Z,72.18
2017-10-08T08:40:01.586Z,71.77
2017-10-08T08:41:07.415Z,71.96
2017-10-08T08:42:13.316Z,72.57
2017-10-08T08:43:20.001Z,72.99
2017-10-08T08:44:26.319Z,73.17
2017-10-08T08:45:33.349Z,73.27
2017-10-08T08:46:39.101Z,72.96
2017-10-08T08:47:44.839Z,72.77
2017-10-08T08:48:50.608Z,72.54
2017-10-08T08:49:56.366Z,72.46
2017-10-08T08:51:02.134Z,72.59
2017-10-08T08:52:07.869Z,72.35
2017-10-08T08:53:13.616Z,72.22
2017-10-08T08:54:20.171Z,72.16
2017-10-08T08:55:25.913Z,72.25
2017-10-08T08:56:31.665Z,72.29
2017-10-08T08:57:38.236Z,72.44
2017-10-08T08:58:44.539Z,72.73
2017-10-08T08:59:51.101Z,72.81
2017-10-08T09:00:57.249Z,73.05
2017-10-08T09:02:06.033Z,73.20
2017-10-08T09:03:11.744Z,73.29
2017-10-08T09:04:20.206Z,73.62
2017-10-08T09:05:26.313Z,73.61
2017-10-08T09:06:32.568Z,72.95
2017-10-08T09:07:38.406Z,73.22
2017-10-08T09:08:44.135Z,73.54
2017-10-08T09:09:50.679Z,73.69
2017-10-08T09:10:56.451Z,73.70
2017-10-08T09:12:02.268Z,73.97
2017-10-08T09:13:08.877Z,73.99
2017-10-08T09:14:14.811Z,74.33
2017-10-08T09:15:20.650Z,74.56
2017-10-08T09:16:26.466Z,74.70
2017-10-08T09:17:32.536Z,74.60
2017-10-08T09:18:39.633Z,74.67
2017-10-08T09:19:45.385Z,74.77
2017-10-08T09:20:51.333Z,74.77
2017-10-08T09:21:57.525Z,74.68
2017-10-08T09:23:03.278Z,74.63
2017-10-08T09:24:11.064Z,74.25
2017-10-08T09:25:17.572Z,74.06
2017-10-08T09:26:23.039Z,73.72
2017-10-08T09:27:28.679Z,73.38
2017-10-08T09:28:36.029Z,73.16
2017-10-08T09:29:41.601Z,73.21
2017-10-08T09:30:47.416Z,73.34
2017-10-08T09:31:53.174Z,73.47
2017-10-08T09:32:58.740Z,73.65
2017-10-08T09:34:05.274Z,73.73
2017-10-08T09:35:10.841Z,74.05
2017-10-08T09:36:17.366Z,74.38
2017-10-08T09:37:23.660Z,74.82
2017-10-08T09:38:30.055Z,75.33
2017-10-08T09:39:35.863Z,75.61
2017-10-08T09:40:41.908Z,76.07
2017-10-08T09:41:47.685Z,76.23
2017-10-08T09:42:53.972Z,76.11
2017-10-08T09:44:01.356Z,75.88
2017-10-08T09:45:07.962Z,75.81
2017-10-08T09:46:13.765Z,75.69
2017-10-08T09:47:19.703Z,75.51
2017-10-08T09:48:25.678Z,75.69
2017-10-08T09:49:31.573Z,75.40
2017-10-08T09:50:37.755Z,75.34
2017-10-08T09:51:44.364Z,75.42
2017-10-08T09:52:50.120Z,75.42
2017-10-08T09:53:55.972Z,75.50
2017-10-08T09:55:01.790Z,74.94
2017-10-08T09:56:07.674Z,74.44
2017-10-08T09:57:13.460Z,73.85
2017-10-08T09:58:20.084Z,73.35
2017-10-08T09:59:25.929Z,73.48
2017-10-08T10:00:32.551Z,73.68
2017-10-08T10:01:38.301Z,73.75
2017-10-08T10:02:44.172Z,73.50
2017-10-08T10:03:51.889Z,73.38
2017-10-08T10:04:57.963Z,73.31
2017-10-08T10:06:03.989Z,73.57
2017-10-08T10:07:10.017Z,73.62
2017-10-08T10:08:16.779Z,73.75
2017-10-08T10:09:23.536Z,73.81
2017-10-08T10:10:29.716Z,73.64
2017-10-08T10:11:35.808Z,73.39
2017-10-08T10:12:41.716Z,73.44
2017-10-08T10:13:47.665Z,73.51
2017-10-08T10:14:53.486Z,73.56
2017-10-08T10:15:59.499Z,72.63
2017-10-08T10:17:05.204Z,72.61
2017-10-08T10:18:11.205Z,73.04
2017-10-08T10:19:18.002Z,73.06
2017-10-08T10:20:23.942Z,73.02
2017-10-08T10:21:29.986Z,72.97
2017-10-08T10:22:36.098Z,73.16
2017-10-08T10:23:42.604Z,72.88
2017-10-08T10:24:48.634Z,72.66
2017-10-08T10:25:55.316Z,72.11
2017-10-08T10:27:01.259Z,71.43
2017-10-08T10:28:07.514Z,70.62
2017-10-08T10:29:14.376Z,70.00
2017-10-08T10:30:20.535Z,69.81
2017-10-08T10:31:27.242Z,69.55
2017-10-08T10:32:33.328Z,69.73
2017-10-08T10:33:39.395Z,69.26
2017-10-08T10:34:45.542Z,69.25
2017-10-08T10:35:51.591Z,69.58
2017-10-08T10:36:57.752Z,69.88
2017-10-08T10:38:04.711Z,70.34
2017-10-08T10:39:11.636Z,70.19
2017-10-08T10:40:17.691Z,69.85
2017-10-08T10:41:24.480Z,70.01
2017-10-08T10:42:30.646Z,70.03
2017-10-08T10:43:36.796Z,69.61
2017-10-08T10:44:42.843Z,69.73
2017-10-08T10:45:49.317Z,70.31
2017-10-08T10:46:55.339Z,69.94
2017-10-08T10:48:01.357Z,69.54
2017-10-08T10:49:08.422Z,69.50
2017-10-08T10:50:14.412Z,69.34
2017-10-08T10:51:20.660Z,69.43
2017-10-08T10:52:27.181Z,69.73
2017-10-08T10:53:33.279Z,70.21
2017-10-08T10:54:40.051Z,69.54
2017-10-08T10:55:46.562Z,69.31
2017-10-08T10:56:52.599Z,68.84
2017-10-08T10:57:58.657Z,68.21
2017-10-08T10:59:05.471Z,67.66
2017-10-08T11:00:11.561Z,67.73
2017-10-08T11:01:18.552Z,66.98
2017-10-08T11:02:25.368Z,66.17
2017-10-08T11:03:31.543Z,66.03
2017-10-08T11:04:37.598Z,65.57
2017-10-08T11:05:43.847Z,65.32
2017-10-08T11:06:50.254Z,65.63
2017-10-08T11:07:56.376Z,65.91
2017-10-08T11:09:02.497Z,65.98
2017-10-08T11:10:08.602Z,65.08
2017-10-08T11:11:14.550Z,64.35
2017-10-08T11:12:20.331Z,64.00
2017-10-08T11:13:27.167Z,64.22
2017-10-08T11:14:33.318Z,64.16
2017-10-08T11:15:39.367Z,64.19
2017-10-08T11:16:46.191Z,64.32
2017-10-08T11:17:53.150Z,64.37
2017-10-08T11:18:59.310Z,64.25
2017-10-08T11:20:06.207Z,64.05
2017-10-08T11:21:12.420Z,64.20
2017-10-08T11:22:18.464Z,64.38
2017-10-08T11:23:24.571Z,64.36
2017-10-08T11:24:30.686Z,64.29
2017-10-08T11:25:38.712Z,64.27
2017-10-08T11:26:44.875Z,64.46
2017-10-08T11:27:51.174Z,64.51
2017-10-08T11:28:59.430Z,64.24
2017-10-08T11:30:05.386Z,64.10
2017-10-08T11:31:11.520Z,63.82
2017-10-08T11:32:17.778Z,63.58
2017-10-08T11:33:24.739Z,63.03
2017-10-08T11:34:31.971Z,62.64
2017-10-08T11:35:39.933Z,62.11
2017-10-08T11:36:45.968Z,61.77
2017-10-08T11:37:52.006Z,61.15
2017-10-08T11:38:58.054Z,61.08
2017-10-08T11:40:04.258Z,61.26
2017-10-08T11:41:10.558Z,61.08
2017-10-08T11:42:17.521Z,61.09
2017-10-08T11:43:23.476Z,61.07
2017-10-08T11:44:29.759Z,61.04
2017-10-08T11:45:35.980Z,60.48
2017-10-08T11:46:43.153Z,60.36
2017-10-08T11:47:50.229Z,60.34
2017-10-08T11:48:56.085Z,58.89
2017-10-08T11:50:02.135Z,58.70
2017-10-08T11:51:08.370Z,58.76
2017-10-08T11:52:14.497Z,58.53
2017-10-08T11:53:20.747Z,58.44
2017-10-08T11:54:26.903Z,58.48
2017-10-08T11:55:32.843Z,58.54
2017-10-08T11:56:38.912Z,58.24
2017-10-08T11:57:45.272Z,58.77
2017-10-08T11:58:51.386Z,59.13
2017-10-08T11:59:58.523Z,59.35
2017-10-08T12:01:06.550Z,59.47
2017-10-08T12:02:14.676Z,59.58
2017-10-08T12:03:21.946Z,60.10
2017-10-08T12:04:28.230Z,60.75
2017-10-08T12:05:34.385Z,60.73
2017-10-08T12:06:40.531Z,61.21
2017-10-08T12:07:46.684Z,61.53
2017-10-08T12:08:52.832Z,61.34
2017-10-08T12:09:58.853Z,61.27
2017-10-08T12:11:04.853Z,61.38
2017-10-08T12:12:10.847Z,61.48
2017-10-08T12:13:17.026Z,61.56
2017-10-08T12:14:24.280Z,61.67
2017-10-08T12:15:30.363Z,61.59
2017-10-08T12:16:36.410Z,61.77
2017-10-08T12:17:42.560Z,61.48
2017-10-08T12:18:48.614Z,61.22
2017-10-08T12:19:54.648Z,61.00
2017-10-08T12:21:00.696Z,60.92
2017-10-08T12:22:06.773Z,61.35
2017-10-08T12:23:13.098Z,60.31
2017-10-08T12:24:19.046Z,59.64
2017-10-08T12:25:25.131Z,59.63
2017-10-08T12:26:32.438Z,59.71
2017-10-08T12:27:39.245Z,59.74
2017-10-08T12:28:45.397Z,59.48
2017-10-08T12:29:51.583Z,58.91
2017-10-08T12:30:57.772Z,58.45
2017-10-08T12:32:04.723Z,58.20
2017-10-08T12:33:11.620Z,58.21
2017-10-08T12:34:18.106Z,58.08
2017-10-08T12:35:24.344Z,57.94
2017-10-08T12:36:30.689Z,57.93
2017-10-08T12:37:36.742Z,58.20
2017-10-08T12:38:42.620Z,58.40
2017-10-08T12:39:49.475Z,58.31
2017-10-08T12:40:55.543Z,58.45
2017-10-08T12:42:02.390Z,57.87
2017-10-08T12:43:08.406Z,57.66
2017-10-08T12:44:15.424Z,57.65
2017-10-08T12:45:21.615Z,57.75
2017-10-08T12:46:27.750Z,57.18
2017-10-08T12:47:34.628Z,57.18
2017-10-08T12:48:41.020Z,57.41
2017-10-08T12:49:47.817Z,57.50
2017-10-08T12:50:54.581Z,57.53
2017-10-08T12:52:01.735Z,57.22
2017-10-08T12:53:09.168Z,57.07
2017-10-08T12:54:15.258Z,57.16
2017-10-08T12:55:21.454Z,57.11
2017-10-08T12:56:29.032Z,56.83
2017-10-08T12:57:35.875Z,56.88
2017-10-08T12:58:41.921Z,56.92
2017-10-08T12:59:48.862Z,57.01
2017-10-08T13:00:54.916Z,56.64
2017-10-08T13:02:01.067Z,56.16
2017-10-08T13:03:07.318Z,56.29
2017-10-08T13:04:13.464Z,56.04
2017-10-08T13:05:19.545Z,55.78
2017-10-08T13:06:25.806Z,55.69
2017-10-08T13:07:32.028Z,55.49
2017-10-08T13:08:38.162Z,55.35
2017-10-08T13:09:44.201Z,55.13
2017-10-08T13:10:51.181Z,54.90
2017-10-08T13:11:59.165Z,54.69
2017-10-08T13:13:05.535Z,55.09
2017-10-08T13:14:11.663Z,55.48
2017-10-08T13:15:17.762Z,56.12
2017-10-08T13:16:23.695Z,56.67
2017-10-08T13:17:29.777Z,56.81
2017-10-08T13:18:35.782Z,57.02
2017-10-08T13:19:41.759Z,57.09
2017-10-08T13:20:47.867Z,57.38
2017-10-08T13:21:53.937Z,57.28
2017-10-08T13:23:00.861Z,57.51
2017-10-08T13:24:07.751Z,58.00
2017-10-08T13:25:13.897Z,58.18
2017-10-08T13:26:19.955Z,57.76
2017-10-08T13:27:26.195Z,57.62
2017-10-08T13:28:32.591Z,57.47
2017-10-08T13:29:38.963Z,57.50
2017-10-08T13:30:47.533Z,57.37
2017-10-08T13:31:53.686Z,57.26
2017-10-08T13:32:59.743Z,57.07
2017-10-08T13:34:06.049Z,56.77
2017-10-08T13:35:12.315Z,56.88
2017-10-08T13:36:18.347Z,56.71
2017-10-08T13:37:26.735Z,56.74
2017-10-08T13:38:32.819Z,56.08
2017-10-08T13:39:39.134Z,56.23
2017-10-08T13:40:46.049Z,54.95
2017-10-08T13:41:52.222Z,54.44
2017-10-08T13:42:58.323Z,54.10
2017-10-08T13:44:04.378Z,53.71
2017-10-08T13:45:12.161Z,53.97
2017-10-08T13:46:19.104Z,54.39
2017-10-08T13:47:25.075Z,54.78
2017-10-08T13:48:32.071Z,54.55
2017-10-08T13:49:38.162Z,54.72
2017-10-08T13:50:45.166Z,54.86
2017-10-08T13:51:52.365Z,54.88
2017-10-08T13:52:59.398Z,54.91
2017-10-08T13:54:05.344Z,54.86
2017-10-08T13:55:12.387Z,54.61
2017-10-08T13:56:18.439Z,54.90
2017-10-08T13:57:24.520Z,54.99
2017-10-08T13:58:30.518Z,55.20
2017-10-08T13:59:36.638Z,55.35
2017-10-08T14:00:44.468Z,55.29
2017-10-08T14:01:52.409Z,55.36
2017-10-08T14:02:59.339Z,55.26
2017-10-08T14:04:05.592Z,55.14
2017-10-08T14:05:11.687Z,55.22
2017-10-08T14:06:18.566Z,55.07
2017-10-08T14:07:25.411Z,55.12
2017-10-08T14:08:31.595Z,55.00
2017-10-08T14:09:37.597Z,55.00
2017-10-08T14:10:44.462Z,54.98